sensor_id;sensor_type;location;lat;lon;timestamp;P1;durP1;ratioP1;P2;durP2;ratioP2
5454;SDS011;2750;49.050;9.250;2023-01-08T00:03:23;7.77;;;6.93;;
5454;SDS011;2750;49.050;9.250;2023-01-08T00:08:25;9.03;;;7.00;;
5454;SDS011;2750;49.050;9.250;2023-01-08T00:13:28;10.20;;;6.83;;
5454;SDS011;2750;49.050;9.250;2023-01-08T00:18:29;7.30;;;6.30;;
5454;SDS011;2750;49.050;9.250;2023-01-08T00:23:31;8.20;;;6.63;;
5454;SDS011;2750;49.050;9.250;2023-01-08T00:28:35;6.83;;;6.13;;
5454;SDS011;2750;49.050;9.250;2023-01-08T00:33:37;8.77;;;7.23;;
5454;SDS011;2750;49.050;9.250;2023-01-08T00:38:39;6.73;;;6.00;;
5454;SDS011;2750;49.050;9.250;2023-01-08T00:43:42;6.70;;;6.07;;
5454;SDS011;2750;49.050;9.250;2023-01-08T00:48:44;8.40;;;7.50;;
5454;SDS011;2750;49.050;9.250;2023-01-08T00:53:46;7.87;;;6.20;;
5454;SDS011;2750;49.050;9.250;2023-01-08T00:58:48;7.83;;;6.33;;
5454;SDS011;2750;49.050;9.250;2023-01-08T01:03:50;7.90;;;6.83;;
5454;SDS011;2750;49.050;9.250;2023-01-08T01:08:51;6.77;;;6.07;;
5454;SDS011;2750;49.050;9.250;2023-01-08T01:13:55;5.67;;;5.17;;
5454;SDS011;2750;49.050;9.250;2023-01-08T01:18:56;6.40;;;5.37;;
5454;SDS011;2750;49.050;9.250;2023-01-08T01:23:58;6.70;;;6.00;;
5454;SDS011;2750;49.050;9.250;2023-01-08T01:29:02;7.00;;;6.17;;
5454;SDS011;2750;49.050;9.250;2023-01-08T01:34:04;7.53;;;6.27;;
5454;SDS011;2750;49.050;9.250;2023-01-08T01:39:07;6.37;;;5.63;;
5454;SDS011;2750;49.050;9.250;2023-01-08T01:49:40;7.47;;;6.07;;
5454;SDS011;2750;49.050;9.250;2023-01-08T01:54:48;7.10;;;5.80;;
5454;SDS011;2750;49.050;9.250;2023-01-08T01:59:51;6.97;;;5.83;;
5454;SDS011;2750;49.050;9.250;2023-01-08T02:04:54;6.23;;;5.00;;
5454;SDS011;2750;49.050;9.250;2023-01-08T02:09:57;6.13;;;5.53;;
5454;SDS011;2750;49.050;9.250;2023-01-08T02:15:09;6.57;;;5.30;;
5454;SDS011;2750;49.050;9.250;2023-01-08T02:20:15;6.10;;;4.97;;
5454;SDS011;2750;49.050;9.250;2023-01-08T02:25:21;5.90;;;4.90;;
5454;SDS011;2750;49.050;9.250;2023-01-08T02:30:33;6.40;;;5.00;;
5454;SDS011;2750;49.050;9.250;2023-01-08T02:35:36;5.57;;;5.07;;
5454;SDS011;2750;49.050;9.250;2023-01-08T02:40:41;6.67;;;5.37;;
5454;SDS011;2750;49.050;9.250;2023-01-08T02:45:55;6.43;;;5.03;;
5454;SDS011;2750;49.050;9.250;2023-01-08T02:51:02;8.33;;;6.03;;
5454;SDS011;2750;49.050;9.250;2023-01-08T02:56:08;6.53;;;5.03;;
5454;SDS011;2750;49.050;9.250;2023-01-08T03:01:14;6.47;;;5.57;;
5454;SDS011;2750;49.050;9.250;2023-01-08T03:06:17;5.40;;;4.90;;
5454;SDS011;2750;49.050;9.250;2023-01-08T03:11:21;6.43;;;5.77;;
5454;SDS011;2750;49.050;9.250;2023-01-08T03:16:27;7.13;;;5.63;;
5454;SDS011;2750;49.050;9.250;2023-01-08T03:21:32;6.60;;;5.30;;
5454;SDS011;2750;49.050;9.250;2023-01-08T03:26:36;6.57;;;5.27;;
5454;SDS011;2750;49.050;9.250;2023-01-08T03:31:40;5.77;;;4.77;;
5454;SDS011;2750;49.050;9.250;2023-01-08T03:36:44;6.07;;;5.00;;
5454;SDS011;2750;49.050;9.250;2023-01-08T03:41:48;6.27;;;5.47;;
5454;SDS011;2750;49.050;9.250;2023-01-08T03:46:53;5.80;;;5.10;;
5454;SDS011;2750;49.050;9.250;2023-01-08T03:51:59;6.00;;;5.10;;
5454;SDS011;2750;49.050;9.250;2023-01-08T03:57:01;8.13;;;5.63;;
5454;SDS011;2750;49.050;9.250;2023-01-08T04:02:04;7.07;;;5.17;;
5454;SDS011;2750;49.050;9.250;2023-01-08T04:07:05;5.70;;;5.03;;
5454;SDS011;2750;49.050;9.250;2023-01-08T04:12:07;5.07;;;4.60;;
5454;SDS011;2750;49.050;9.250;2023-01-08T04:17:11;6.17;;;5.30;;
5454;SDS011;2750;49.050;9.250;2023-01-08T04:22:13;5.57;;;4.70;;
5454;SDS011;2750;49.050;9.250;2023-01-08T04:27:15;6.23;;;5.33;;
5454;SDS011;2750;49.050;9.250;2023-01-08T04:32:18;5.10;;;4.60;;
5454;SDS011;2750;49.050;9.250;2023-01-08T04:37:20;5.07;;;4.40;;
5454;SDS011;2750;49.050;9.250;2023-01-08T04:42:21;5.53;;;5.03;;
5454;SDS011;2750;49.050;9.250;2023-01-08T04:47:24;4.67;;;4.23;;
5454;SDS011;2750;49.050;9.250;2023-01-08T04:52:26;4.63;;;4.23;;
5454;SDS011;2750;49.050;9.250;2023-01-08T04:57:28;5.10;;;4.60;;
5454;SDS011;2750;49.050;9.250;2023-01-08T05:02:31;6.50;;;4.73;;
5454;SDS011;2750;49.050;9.250;2023-01-08T05:07:32;8.77;;;4.77;;
5454;SDS011;2750;49.050;9.250;2023-01-08T05:12:34;5.13;;;4.40;;
5454;SDS011;2750;49.050;9.250;2023-01-08T05:17:37;5.13;;;4.20;;
5454;SDS011;2750;49.050;9.250;2023-01-08T05:22:38;6.57;;;4.87;;
5454;SDS011;2750;49.050;9.250;2023-01-08T05:27:40;5.43;;;4.40;;
5454;SDS011;2750;49.050;9.250;2023-01-08T05:32:42;6.63;;;5.07;;
5454;SDS011;2750;49.050;9.250;2023-01-08T05:37:44;4.37;;;3.97;;
5454;SDS011;2750;49.050;9.250;2023-01-08T05:42:46;6.33;;;4.90;;
5454;SDS011;2750;49.050;9.250;2023-01-08T05:47:48;6.00;;;5.00;;
5454;SDS011;2750;49.050;9.250;2023-01-08T05:52:50;5.30;;;4.80;;
5454;SDS011;2750;49.050;9.250;2023-01-08T05:57:51;6.53;;;5.90;;
5454;SDS011;2750;49.050;9.250;2023-01-08T06:02:55;9.23;;;6.87;;
5454;SDS011;2750;49.050;9.250;2023-01-08T06:07:56;11.07;;;7.10;;
5454;SDS011;2750;49.050;9.250;2023-01-08T06:12:58;8.77;;;6.27;;
5454;SDS011;2750;49.050;9.250;2023-01-08T06:18:02;7.50;;;6.07;;
5454;SDS011;2750;49.050;9.250;2023-01-08T06:23:04;6.83;;;5.83;;
5454;SDS011;2750;49.050;9.250;2023-01-08T06:28:07;6.70;;;5.90;;
5454;SDS011;2750;49.050;9.250;2023-01-08T06:33:10;8.03;;;4.90;;
5454;SDS011;2750;49.050;9.250;2023-01-08T06:38:12;4.40;;;4.00;;
5454;SDS011;2750;49.050;9.250;2023-01-08T06:43:13;4.83;;;4.13;;
5454;SDS011;2750;49.050;9.250;2023-01-08T06:48:16;6.53;;;3.97;;
5454;SDS011;2750;49.050;9.250;2023-01-08T06:53:18;4.80;;;4.30;;
5454;SDS011;2750;49.050;9.250;2023-01-08T06:58:19;4.57;;;4.17;;
5454;SDS011;2750;49.050;9.250;2023-01-08T07:03:22;4.50;;;4.10;;
5454;SDS011;2750;49.050;9.250;2023-01-08T07:08:24;3.73;;;3.30;;
5454;SDS011;2750;49.050;9.250;2023-01-08T07:13:26;5.20;;;3.80;;
5454;SDS011;2750;49.050;9.250;2023-01-08T07:18:29;2.87;;;2.57;;
5454;SDS011;2750;49.050;9.250;2023-01-08T07:23:30;2.63;;;2.43;;
5454;SDS011;2750;49.050;9.250;2023-01-08T07:28:33;2.63;;;2.27;;
5454;SDS011;2750;49.050;9.250;2023-01-08T07:33:36;2.90;;;2.10;;
5454;SDS011;2750;49.050;9.250;2023-01-08T07:38:38;3.27;;;2.10;;
5454;SDS011;2750;49.050;9.250;2023-01-08T07:43:39;2.40;;;2.20;;
5454;SDS011;2750;49.050;9.250;2023-01-08T07:48:42;5.63;;;2.60;;
5454;SDS011;2750;49.050;9.250;2023-01-08T07:53:44;2.63;;;2.10;;
5454;SDS011;2750;49.050;9.250;2023-01-08T07:58:46;5.03;;;2.00;;
5454;SDS011;2750;49.050;9.250;2023-01-08T08:03:48;3.20;;;2.50;;
5454;SDS011;2750;49.050;9.250;2023-01-08T08:08:50;2.93;;;2.10;;
5454;SDS011;2750;49.050;9.250;2023-01-08T08:13:51;4.50;;;2.03;;
5454;SDS011;2750;49.050;9.250;2023-01-08T08:18:54;2.60;;;2.30;;
5454;SDS011;2750;49.050;9.250;2023-01-08T08:23:58;3.50;;;2.30;;
5454;SDS011;2750;49.050;9.250;2023-01-08T08:29:00;2.83;;;2.10;;
5454;SDS011;2750;49.050;9.250;2023-01-08T08:34:03;6.10;;;2.23;;
5454;SDS011;2750;49.050;9.250;2023-01-08T08:39:05;2.03;;;1.83;;
5454;SDS011;2750;49.050;9.250;2023-01-08T08:44:07;3.63;;;1.90;;
5454;SDS011;2750;49.050;9.250;2023-01-08T08:49:10;2.50;;;1.90;;
5454;SDS011;2750;49.050;9.250;2023-01-08T08:54:12;1.83;;;1.50;;
5454;SDS011;2750;49.050;9.250;2023-01-08T08:59:14;1.50;;;1.40;;
5454;SDS011;2750;49.050;9.250;2023-01-08T09:04:16;1.70;;;1.60;;
5454;SDS011;2750;49.050;9.250;2023-01-08T09:09:18;3.20;;;1.90;;
5454;SDS011;2750;49.050;9.250;2023-01-08T09:14:20;3.60;;;1.60;;
5454;SDS011;2750;49.050;9.250;2023-01-08T09:19:23;1.80;;;1.70;;
5454;SDS011;2750;49.050;9.250;2023-01-08T09:24:24;1.93;;;1.83;;
5454;SDS011;2750;49.050;9.250;2023-01-08T09:29:26;4.50;;;1.80;;
5454;SDS011;2750;49.050;9.250;2023-01-08T09:34:29;3.20;;;1.83;;
5454;SDS011;2750;49.050;9.250;2023-01-08T09:39:31;2.07;;;1.80;;
5454;SDS011;2750;49.050;9.250;2023-01-08T09:44:34;1.97;;;1.60;;
5454;SDS011;2750;49.050;9.250;2023-01-08T09:49:40;2.60;;;1.80;;
5454;SDS011;2750;49.050;9.250;2023-01-08T09:54:45;5.20;;;3.97;;
5454;SDS011;2750;49.050;9.250;2023-01-08T09:59:47;7.70;;;6.90;;
5454;SDS011;2750;49.050;9.250;2023-01-08T10:04:52;2.67;;;2.10;;
5454;SDS011;2750;49.050;9.250;2023-01-08T10:09:56;2.67;;;1.83;;
5454;SDS011;2750;49.050;9.250;2023-01-08T10:14:59;2.07;;;1.87;;
5454;SDS011;2750;49.050;9.250;2023-01-08T10:20:07;2.23;;;2.03;;
5454;SDS011;2750;49.050;9.250;2023-01-08T10:25:12;3.60;;;2.10;;
5454;SDS011;2750;49.050;9.250;2023-01-08T10:30:16;3.50;;;2.13;;
5454;SDS011;2750;49.050;9.250;2023-01-08T10:35:22;1.80;;;1.70;;
5454;SDS011;2750;49.050;9.250;2023-01-08T10:40:31;3.17;;;1.47;;
5454;SDS011;2750;49.050;9.250;2023-01-08T10:45:36;1.70;;;1.60;;
5454;SDS011;2750;49.050;9.250;2023-01-08T10:50:41;1.53;;;1.30;;
5454;SDS011;2750;49.050;9.250;2023-01-08T10:55:42;2.90;;;1.60;;
5454;SDS011;2750;49.050;9.250;2023-01-08T11:00:43;1.60;;;1.43;;
5454;SDS011;2750;49.050;9.250;2023-01-08T11:05:47;2.60;;;1.53;;
5454;SDS011;2750;49.050;9.250;2023-01-08T11:10:52;1.20;;;1.10;;
5454;SDS011;2750;49.050;9.250;2023-01-08T11:15:58;2.03;;;1.70;;
5454;SDS011;2750;49.050;9.250;2023-01-08T11:21:07;1.83;;;1.60;;
5454;SDS011;2750;49.050;9.250;2023-01-08T11:26:12;1.50;;;1.23;;
5454;SDS011;2750;49.050;9.250;2023-01-08T11:31:18;1.30;;;1.20;;
5454;SDS011;2750;49.050;9.250;2023-01-08T11:36:26;1.37;;;1.23;;
5454;SDS011;2750;49.050;9.250;2023-01-08T11:41:37;1.77;;;1.50;;
5454;SDS011;2750;49.050;9.250;2023-01-08T11:46:55;1.60;;;1.37;;
5454;SDS011;2750;49.050;9.250;2023-01-08T11:52:11;1.40;;;1.20;;
5454;SDS011;2750;49.050;9.250;2023-01-08T11:57:25;1.90;;;1.50;;
5454;SDS011;2750;49.050;9.250;2023-01-08T12:02:42;1.73;;;1.40;;
5454;SDS011;2750;49.050;9.250;2023-01-08T12:07:57;1.90;;;1.10;;
5454;SDS011;2750;49.050;9.250;2023-01-08T12:13:05;1.87;;;1.60;;
5454;SDS011;2750;49.050;9.250;2023-01-08T12:18:18;1.67;;;1.50;;
5454;SDS011;2750;49.050;9.250;2023-01-08T12:23:35;2.00;;;1.40;;
5454;SDS011;2750;49.050;9.250;2023-01-08T12:28:56;1.57;;;1.20;;
5454;SDS011;2750;49.050;9.250;2023-01-08T12:34:10;2.37;;;1.30;;
5454;SDS011;2750;49.050;9.250;2023-01-08T12:39:17;1.50;;;1.13;;
5454;SDS011;2750;49.050;9.250;2023-01-08T12:44:25;1.50;;;1.30;;
5454;SDS011;2750;49.050;9.250;2023-01-08T12:49:31;1.23;;;1.13;;
5454;SDS011;2750;49.050;9.250;2023-01-08T12:54:43;1.10;;;1.00;;
5454;SDS011;2750;49.050;9.250;2023-01-08T12:59:55;0.87;;;0.87;;
5454;SDS011;2750;49.050;9.250;2023-01-08T13:05:13;1.23;;;1.13;;
5454;SDS011;2750;49.050;9.250;2023-01-08T13:10:33;1.50;;;1.00;;
5454;SDS011;2750;49.050;9.250;2023-01-08T13:15:36;0.87;;;0.83;;
5454;SDS011;2750;49.050;9.250;2023-01-08T13:20:38;5.27;;;4.73;;
5454;SDS011;2750;49.050;9.250;2023-01-08T13:25:49;1.90;;;1.80;;
5454;SDS011;2750;49.050;9.250;2023-01-08T13:30:52;1.27;;;1.17;;
5454;SDS011;2750;49.050;9.250;2023-01-08T13:41:25;1.03;;;1.00;;
5454;SDS011;2750;49.050;9.250;2023-01-08T13:46:28;0.87;;;0.83;;
5454;SDS011;2750;49.050;9.250;2023-01-08T13:51:31;1.10;;;0.90;;
5454;SDS011;2750;49.050;9.250;2023-01-08T13:56:40;1.00;;;0.90;;
5454;SDS011;2750;49.050;9.250;2023-01-08T14:01:50;1.57;;;0.90;;
5454;SDS011;2750;49.050;9.250;2023-01-08T14:06:52;0.90;;;0.90;;
5454;SDS011;2750;49.050;9.250;2023-01-08T14:12:07;1.10;;;0.90;;
5454;SDS011;2750;49.050;9.250;2023-01-08T14:17:13;1.03;;;0.90;;
5454;SDS011;2750;49.050;9.250;2023-01-08T14:22:17;1.30;;;1.20;;
5454;SDS011;2750;49.050;9.250;2023-01-08T14:27:23;1.10;;;0.90;;
5454;SDS011;2750;49.050;9.250;2023-01-08T14:32:26;1.87;;;1.17;;
5454;SDS011;2750;49.050;9.250;2023-01-08T14:37:29;1.07;;;0.97;;
5454;SDS011;2750;49.050;9.250;2023-01-08T14:42:32;1.00;;;0.80;;
5454;SDS011;2750;49.050;9.250;2023-01-08T14:47:46;1.03;;;0.93;;
5454;SDS011;2750;49.050;9.250;2023-01-08T14:52:49;1.00;;;1.00;;
5454;SDS011;2750;49.050;9.250;2023-01-08T14:57:53;1.10;;;1.00;;
5454;SDS011;2750;49.050;9.250;2023-01-08T15:02:56;1.57;;;1.20;;
5454;SDS011;2750;49.050;9.250;2023-01-08T15:07:59;1.07;;;0.97;;
5454;SDS011;2750;49.050;9.250;2023-01-08T15:13:03;1.33;;;1.10;;
5454;SDS011;2750;49.050;9.250;2023-01-08T15:18:07;1.30;;;1.20;;
5454;SDS011;2750;49.050;9.250;2023-01-08T15:23:21;1.53;;;1.30;;
5454;SDS011;2750;49.050;9.250;2023-01-08T15:28:27;2.20;;;1.70;;
5454;SDS011;2750;49.050;9.250;2023-01-08T15:33:28;2.50;;;2.30;;
5454;SDS011;2750;49.050;9.250;2023-01-08T15:38:30;1.60;;;1.50;;
5454;SDS011;2750;49.050;9.250;2023-01-08T15:43:33;1.67;;;0.90;;
5454;SDS011;2750;49.050;9.250;2023-01-08T15:48:34;1.30;;;1.20;;
5454;SDS011;2750;49.050;9.250;2023-01-08T15:53:36;1.23;;;1.13;;
5454;SDS011;2750;49.050;9.250;2023-01-08T15:58:39;1.20;;;1.10;;
5454;SDS011;2750;49.050;9.250;2023-01-08T16:03:41;1.30;;;1.10;;
5454;SDS011;2750;49.050;9.250;2023-01-08T16:08:43;1.23;;;1.10;;
5454;SDS011;2750;49.050;9.250;2023-01-08T16:13:46;1.50;;;1.33;;
5454;SDS011;2750;49.050;9.250;2023-01-08T16:18:48;1.37;;;1.13;;
5454;SDS011;2750;49.050;9.250;2023-01-08T16:23:51;1.90;;;1.30;;
5454;SDS011;2750;49.050;9.250;2023-01-08T16:28:54;1.23;;;1.13;;
5454;SDS011;2750;49.050;9.250;2023-01-08T16:33:59;1.77;;;1.57;;
5454;SDS011;2750;49.050;9.250;2023-01-08T16:39:01;1.10;;;1.00;;
5454;SDS011;2750;49.050;9.250;2023-01-08T16:44:04;1.20;;;1.10;;
5454;SDS011;2750;49.050;9.250;2023-01-08T16:49:06;1.97;;;1.33;;
5454;SDS011;2750;49.050;9.250;2023-01-08T16:54:09;2.37;;;1.30;;
5454;SDS011;2750;49.050;9.250;2023-01-08T16:59:13;3.00;;;1.33;;
5454;SDS011;2750;49.050;9.250;2023-01-08T17:04:14;1.80;;;1.20;;
5454;SDS011;2750;49.050;9.250;2023-01-08T17:09:16;1.57;;;1.40;;
5454;SDS011;2750;49.050;9.250;2023-01-08T17:14:18;1.87;;;1.67;;
5454;SDS011;2750;49.050;9.250;2023-01-08T17:19:20;1.40;;;1.30;;
5454;SDS011;2750;49.050;9.250;2023-01-08T17:24:22;2.33;;;1.70;;
5454;SDS011;2750;49.050;9.250;2023-01-08T17:29:24;2.30;;;2.10;;
5454;SDS011;2750;49.050;9.250;2023-01-08T17:34:26;2.37;;;2.13;;
5454;SDS011;2750;49.050;9.250;2023-01-08T17:39:27;4.07;;;2.30;;
5454;SDS011;2750;49.050;9.250;2023-01-08T17:44:30;3.87;;;2.10;;
5454;SDS011;2750;49.050;9.250;2023-01-08T17:49:32;3.03;;;2.40;;
5454;SDS011;2750;49.050;9.250;2023-01-08T17:54:33;6.10;;;4.17;;
5454;SDS011;2750;49.050;9.250;2023-01-08T17:59:37;4.87;;;4.07;;
5454;SDS011;2750;49.050;9.250;2023-01-08T18:04:38;6.60;;;4.00;;
5454;SDS011;2750;49.050;9.250;2023-01-08T18:09:40;4.13;;;3.20;;
5454;SDS011;2750;49.050;9.250;2023-01-08T18:14:43;3.73;;;3.37;;
5454;SDS011;2750;49.050;9.250;2023-01-08T18:19:44;5.27;;;3.30;;
5454;SDS011;2750;49.050;9.250;2023-01-08T18:24:47;4.20;;;3.53;;
5454;SDS011;2750;49.050;9.250;2023-01-08T18:29:50;4.13;;;3.73;;
5454;SDS011;2750;49.050;9.250;2023-01-08T18:34:53;3.93;;;3.27;;
5454;SDS011;2750;49.050;9.250;2023-01-08T18:39:55;3.73;;;3.10;;
5454;SDS011;2750;49.050;9.250;2023-01-08T18:44:58;4.73;;;3.13;;
5454;SDS011;2750;49.050;9.250;2023-01-08T18:50:01;4.77;;;3.10;;
5454;SDS011;2750;49.050;9.250;2023-01-08T18:55:04;3.67;;;3.17;;
5454;SDS011;2750;49.050;9.250;2023-01-08T19:00:08;3.43;;;3.10;;
5454;SDS011;2750;49.050;9.250;2023-01-08T19:05:10;5.03;;;3.17;;
5454;SDS011;2750;49.050;9.250;2023-01-08T19:10:12;6.53;;;5.00;;
5454;SDS011;2750;49.050;9.250;2023-01-08T19:15:17;5.23;;;4.70;;
5454;SDS011;2750;49.050;9.250;2023-01-08T19:20:19;4.30;;;3.90;;
5454;SDS011;2750;49.050;9.250;2023-01-08T19:25:20;4.73;;;3.80;;
5454;SDS011;2750;49.050;9.250;2023-01-08T19:30:23;5.10;;;3.67;;
5454;SDS011;2750;49.050;9.250;2023-01-08T19:35:25;4.20;;;3.47;;
5454;SDS011;2750;49.050;9.250;2023-01-08T19:40:26;5.60;;;4.27;;
5454;SDS011;2750;49.050;9.250;2023-01-08T19:45:29;5.57;;;4.30;;
5454;SDS011;2750;49.050;9.250;2023-01-08T19:50:31;4.67;;;4.27;;
5454;SDS011;2750;49.050;9.250;2023-01-08T19:55:33;4.93;;;4.47;;
5454;SDS011;2750;49.050;9.250;2023-01-08T20:00:37;5.73;;;4.97;;
5454;SDS011;2750;49.050;9.250;2023-01-08T20:05:39;6.63;;;4.67;;
5454;SDS011;2750;49.050;9.250;2023-01-08T20:10:41;4.77;;;4.33;;
5454;SDS011;2750;49.050;9.250;2023-01-08T20:15:44;5.70;;;4.20;;
5454;SDS011;2750;49.050;9.250;2023-01-08T20:21:00;5.67;;;4.10;;
5454;SDS011;2750;49.050;9.250;2023-01-08T20:26:03;6.30;;;3.90;;
5454;SDS011;2750;49.050;9.250;2023-01-08T20:31:08;7.77;;;4.77;;
5454;SDS011;2750;49.050;9.250;2023-01-08T20:36:11;4.37;;;3.97;;
5454;SDS011;2750;49.050;9.250;2023-01-08T20:41:14;5.03;;;4.50;;
5454;SDS011;2750;49.050;9.250;2023-01-08T20:46:17;7.70;;;5.33;;
5454;SDS011;2750;49.050;9.250;2023-01-08T20:51:19;6.50;;;5.33;;
5454;SDS011;2750;49.050;9.250;2023-01-08T20:56:20;8.03;;;5.30;;
5454;SDS011;2750;49.050;9.250;2023-01-08T21:01:24;7.80;;;5.03;;
5454;SDS011;2750;49.050;9.250;2023-01-08T21:06:30;5.20;;;4.60;;
5454;SDS011;2750;49.050;9.250;2023-01-08T21:11:32;5.10;;;4.60;;
5454;SDS011;2750;49.050;9.250;2023-01-08T21:16:36;5.13;;;4.63;;
5454;SDS011;2750;49.050;9.250;2023-01-08T21:21:39;5.10;;;4.60;;
5454;SDS011;2750;49.050;9.250;2023-01-08T21:26:42;5.40;;;4.47;;
5454;SDS011;2750;49.050;9.250;2023-01-08T21:31:46;8.23;;;4.90;;
5454;SDS011;2750;49.050;9.250;2023-01-08T21:36:47;7.20;;;4.83;;
5454;SDS011;2750;49.050;9.250;2023-01-08T21:41:49;8.07;;;5.60;;
5454;SDS011;2750;49.050;9.250;2023-01-08T21:47:17;7.00;;;5.30;;
5454;SDS011;2750;49.050;9.250;2023-01-08T21:52:19;6.53;;;4.67;;
5454;SDS011;2750;49.050;9.250;2023-01-08T21:57:38;7.00;;;5.50;;
5454;SDS011;2750;49.050;9.250;2023-01-08T22:02:41;6.10;;;5.50;;
5454;SDS011;2750;49.050;9.250;2023-01-08T22:07:43;8.03;;;6.53;;
5454;SDS011;2750;49.050;9.250;2023-01-08T22:12:45;7.03;;;6.33;;
5454;SDS011;2750;49.050;9.250;2023-01-08T22:17:47;6.93;;;6.23;;
5454;SDS011;2750;49.050;9.250;2023-01-08T22:22:49;8.03;;;7.23;;
5454;SDS011;2750;49.050;9.250;2023-01-08T22:27:50;7.20;;;6.40;;
5454;SDS011;2750;49.050;9.250;2023-01-08T22:32:54;7.50;;;6.00;;
5454;SDS011;2750;49.050;9.250;2023-01-08T22:37:56;6.73;;;6.03;;
5454;SDS011;2750;49.050;9.250;2023-01-08T22:42:57;6.57;;;5.83;;
5454;SDS011;2750;49.050;9.250;2023-01-08T22:48:00;6.90;;;5.13;;
5454;SDS011;2750;49.050;9.250;2023-01-08T22:53:03;5.83;;;5.27;;
5454;SDS011;2750;49.050;9.250;2023-01-08T22:58:05;6.50;;;5.80;;
5454;SDS011;2750;49.050;9.250;2023-01-08T23:03:08;6.90;;;6.20;;
5454;SDS011;2750;49.050;9.250;2023-01-08T23:08:10;5.80;;;5.20;;
5454;SDS011;2750;49.050;9.250;2023-01-08T23:13:11;7.10;;;5.27;;
5454;SDS011;2750;49.050;9.250;2023-01-08T23:18:14;5.17;;;4.67;;
5454;SDS011;2750;49.050;9.250;2023-01-08T23:23:16;6.30;;;5.03;;
5454;SDS011;2750;49.050;9.250;2023-01-08T23:28:17;6.27;;;5.50;;
5454;SDS011;2750;49.050;9.250;2023-01-08T23:33:20;5.73;;;5.00;;
5454;SDS011;2750;49.050;9.250;2023-01-08T23:38:22;7.37;;;6.17;;
5454;SDS011;2750;49.050;9.250;2023-01-08T23:43:23;6.27;;;5.37;;
5454;SDS011;2750;49.050;9.250;2023-01-08T23:48:26;5.97;;;5.47;;
5454;SDS011;2750;49.050;9.250;2023-01-08T23:53:28;7.00;;;6.30;;
5454;SDS011;2750;49.050;9.250;2023-01-08T23:58:29;7.83;;;5.70;;
